sensor_id;sensor_type;location;lat;lon;timestamp;temperature;humidity
25570;DHT22;17955;45.542;9.238;2022-08-21T00:00:17;25.90;82.20
25570;DHT22;17955;45.542;9.238;2022-08-21T00:02:48;25.80;81.40
25570;DHT22;17955;45.542;9.238;2022-08-21T00:05:16;25.80;81.40
25570;DHT22;17955;45.542;9.238;2022-08-21T00:07:43;25.80;81.60
25570;DHT22;17955;45.542;9.238;2022-08-21T00:10:12;25.70;82.00
25570;DHT22;17955;45.542;9.238;2022-08-21T00:12:40;25.90;82.00
25570;DHT22;17955;45.542;9.238;2022-08-21T00:15:09;25.70;81.70
25570;DHT22;17955;45.542;9.238;2022-08-21T00:17:37;25.70;81.80
25570;DHT22;17955;45.542;9.238;2022-08-21T00:20:05;25.70;82.70
25570;DHT22;17955;45.542;9.238;2022-08-21T00:22:34;25.70;82.20
25570;DHT22;17955;45.542;9.238;2022-08-21T00:25:02;25.70;82.70
25570;DHT22;17955;45.542;9.238;2022-08-21T00:27:31;25.60;82.90
25570;DHT22;17955;45.542;9.238;2022-08-21T00:29:58;25.50;83.50
25570;DHT22;17955;45.542;9.238;2022-08-21T00:32:26;25.60;83.80
25570;DHT22;17955;45.542;9.238;2022-08-21T00:34:54;25.70;83.90
25570;DHT22;17955;45.542;9.238;2022-08-21T00:37:21;25.30;84.10
25570;DHT22;17955;45.542;9.238;2022-08-21T00:39:48;25.50;84.10
25570;DHT22;17955;45.542;9.238;2022-08-21T00:42:16;25.30;83.90
25570;DHT22;17955;45.542;9.238;2022-08-21T00:44:46;25.30;84.00
25570;DHT22;17955;45.542;9.238;2022-08-21T00:47:13;25.30;83.80
25570;DHT22;17955;45.542;9.238;2022-08-21T00:49:40;25.30;83.80
25570;DHT22;17955;45.542;9.238;2022-08-21T00:52:12;25.30;84.30
25570;DHT22;17955;45.542;9.238;2022-08-21T00:54:41;25.20;84.50
25570;DHT22;17955;45.542;9.238;2022-08-21T00:57:14;25.30;84.70
25570;DHT22;17955;45.542;9.238;2022-08-21T00:59:46;25.30;84.80
25570;DHT22;17955;45.542;9.238;2022-08-21T01:02:17;25.20;85.20
25570;DHT22;17955;45.542;9.238;2022-08-21T01:04:44;25.20;84.70
25570;DHT22;17955;45.542;9.238;2022-08-21T01:07:11;25.10;84.60
25570;DHT22;17955;45.542;9.238;2022-08-21T01:09:39;25.20;85.10
25570;DHT22;17955;45.542;9.238;2022-08-21T01:12:07;25.00;85.50
25570;DHT22;17955;45.542;9.238;2022-08-21T01:14:34;25.30;86.30
25570;DHT22;17955;45.542;9.238;2022-08-21T01:17:03;25.00;86.60
25570;DHT22;17955;45.542;9.238;2022-08-21T01:19:31;24.90;86.70
25570;DHT22;17955;45.542;9.238;2022-08-21T01:22:02;24.90;86.80
25570;DHT22;17955;45.542;9.238;2022-08-21T01:24:29;24.90;87.10
25570;DHT22;17955;45.542;9.238;2022-08-21T01:27:00;25.00;87.80
25570;DHT22;17955;45.542;9.238;2022-08-21T01:29:32;24.90;87.50
25570;DHT22;17955;45.542;9.238;2022-08-21T01:32:04;24.90;87.90
25570;DHT22;17955;45.542;9.238;2022-08-21T01:34:37;24.90;88.10
25570;DHT22;17955;45.542;9.238;2022-08-21T01:37:07;24.60;88.40
25570;DHT22;17955;45.542;9.238;2022-08-21T01:39:35;24.70;88.70
25570;DHT22;17955;45.542;9.238;2022-08-21T01:42:04;24.60;88.20
25570;DHT22;17955;45.542;9.238;2022-08-21T01:44:32;24.60;85.60
25570;DHT22;17955;45.542;9.238;2022-08-21T01:47:00;24.60;88.90
25570;DHT22;17955;45.542;9.238;2022-08-21T01:49:28;24.60;89.80
25570;DHT22;17955;45.542;9.238;2022-08-21T01:51:55;24.60;90.50
25570;DHT22;17955;45.542;9.238;2022-08-21T01:54:23;24.50;90.70
25570;DHT22;17955;45.542;9.238;2022-08-21T01:56:52;24.50;90.90
25570;DHT22;17955;45.542;9.238;2022-08-21T01:59:20;24.40;90.80
25570;DHT22;17955;45.542;9.238;2022-08-21T02:01:49;24.30;90.70
25570;DHT22;17955;45.542;9.238;2022-08-21T02:04:16;24.20;90.70
25570;DHT22;17955;45.542;9.238;2022-08-21T02:06:43;24.20;90.60
25570;DHT22;17955;45.542;9.238;2022-08-21T02:09:12;24.10;90.60
25570;DHT22;17955;45.542;9.238;2022-08-21T02:11:41;24.20;90.70
25570;DHT22;17955;45.542;9.238;2022-08-21T02:14:08;24.20;90.70
25570;DHT22;17955;45.542;9.238;2022-08-21T02:16:37;24.20;90.60
25570;DHT22;17955;45.542;9.238;2022-08-21T02:19:05;24.20;90.70
25570;DHT22;17955;45.542;9.238;2022-08-21T02:21:32;24.30;90.70
25570;DHT22;17955;45.542;9.238;2022-08-21T02:23:59;24.30;90.50
25570;DHT22;17955;45.542;9.238;2022-08-21T02:26:26;24.30;90.70
25570;DHT22;17955;45.542;9.238;2022-08-21T02:28:55;24.30;90.10
25570;DHT22;17955;45.542;9.238;2022-08-21T02:31:22;24.20;90.10
25570;DHT22;17955;45.542;9.238;2022-08-21T02:33:50;24.30;90.20
25570;DHT22;17955;45.542;9.238;2022-08-21T02:36:20;24.30;90.50
25570;DHT22;17955;45.542;9.238;2022-08-21T02:38:47;24.30;90.60
25570;DHT22;17955;45.542;9.238;2022-08-21T02:41:17;24.20;90.50
25570;DHT22;17955;45.542;9.238;2022-08-21T02:43:45;24.30;90.40
25570;DHT22;17955;45.542;9.238;2022-08-21T02:46:15;24.20;90.60
25570;DHT22;17955;45.542;9.238;2022-08-21T02:48:43;24.00;90.60
25570;DHT22;17955;45.542;9.238;2022-08-21T02:51:12;24.10;90.60
25570;DHT22;17955;45.542;9.238;2022-08-21T02:53:41;24.30;90.70
25570;DHT22;17955;45.542;9.238;2022-08-21T02:56:11;26.60;91.70
25570;DHT22;17955;45.542;9.238;2022-08-21T02:58:43;24.20;91.00
25570;DHT22;17955;45.542;9.238;2022-08-21T03:01:11;24.10;91.50
25570;DHT22;17955;45.542;9.238;2022-08-21T03:03:41;24.00;91.20
25570;DHT22;17955;45.542;9.238;2022-08-21T03:06:09;24.20;91.20
25570;DHT22;17955;45.542;9.238;2022-08-21T03:08:38;24.00;91.10
25570;DHT22;17955;45.542;9.238;2022-08-21T03:11:06;24.20;91.20
25570;DHT22;17955;45.542;9.238;2022-08-21T03:13:33;24.20;91.30
25570;DHT22;17955;45.542;9.238;2022-08-21T03:16:00;24.20;91.20
25570;DHT22;17955;45.542;9.238;2022-08-21T03:18:28;24.10;91.20
25570;DHT22;17955;45.542;9.238;2022-08-21T03:20:56;24.10;90.20
25570;DHT22;17955;45.542;9.238;2022-08-21T03:23:23;23.90;91.90
25570;DHT22;17955;45.542;9.238;2022-08-21T03:25:50;23.90;92.20
25570;DHT22;17955;45.542;9.238;2022-08-21T03:28:19;23.70;92.30
25570;DHT22;17955;45.542;9.238;2022-08-21T03:30:49;23.70;92.60
25570;DHT22;17955;45.542;9.238;2022-08-21T03:33:17;23.40;92.50
25570;DHT22;17955;45.542;9.238;2022-08-21T03:35:56;23.60;93.00
25570;DHT22;17955;45.542;9.238;2022-08-21T03:38:27;24.00;93.70
25570;DHT22;17955;45.542;9.238;2022-08-21T03:40:54;23.80;93.60
25570;DHT22;17955;45.542;9.238;2022-08-21T03:43:21;23.40;93.60
25570;DHT22;17955;45.542;9.238;2022-08-21T03:45:48;23.40;93.90
25570;DHT22;17955;45.542;9.238;2022-08-21T03:48:15;23.40;93.90
25570;DHT22;17955;45.542;9.238;2022-08-21T03:50:43;23.50;94.00
25570;DHT22;17955;45.542;9.238;2022-08-21T03:53:13;23.40;94.30
25570;DHT22;17955;45.542;9.238;2022-08-21T03:55:42;23.40;94.30
25570;DHT22;17955;45.542;9.238;2022-08-21T03:58:09;23.40;94.30
25570;DHT22;17955;45.542;9.238;2022-08-21T04:00:36;23.40;94.50
25570;DHT22;17955;45.542;9.238;2022-08-21T04:03:03;23.40;94.60
25570;DHT22;17955;45.542;9.238;2022-08-21T04:05:32;23.40;95.20
25570;DHT22;17955;45.542;9.238;2022-08-21T04:08:00;23.20;94.60
25570;DHT22;17955;45.542;9.238;2022-08-21T04:10:29;23.30;95.00
25570;DHT22;17955;45.542;9.238;2022-08-21T04:12:58;23.00;95.10
25570;DHT22;17955;45.542;9.238;2022-08-21T04:15:26;23.10;95.20
25570;DHT22;17955;45.542;9.238;2022-08-21T04:17:53;23.20;95.30
25570;DHT22;17955;45.542;9.238;2022-08-21T04:20:21;23.30;95.20
25570;DHT22;17955;45.542;9.238;2022-08-21T04:22:49;23.00;95.40
25570;DHT22;17955;45.542;9.238;2022-08-21T04:25:19;22.90;95.60
25570;DHT22;17955;45.542;9.238;2022-08-21T04:27:46;23.00;95.60
25570;DHT22;17955;45.542;9.238;2022-08-21T04:30:15;22.80;95.60
25570;DHT22;17955;45.542;9.238;2022-08-21T04:32:43;23.00;95.80
25570;DHT22;17955;45.542;9.238;2022-08-21T04:35:12;22.90;95.70
25570;DHT22;17955;45.542;9.238;2022-08-21T04:37:39;22.90;96.00
25570;DHT22;17955;45.542;9.238;2022-08-21T04:40:08;23.20;96.20
25570;DHT22;17955;45.542;9.238;2022-08-21T04:42:42;22.90;95.80
25570;DHT22;17955;45.542;9.238;2022-08-21T04:45:17;23.20;96.20
25570;DHT22;17955;45.542;9.238;2022-08-21T04:47:47;23.80;96.20
25570;DHT22;17955;45.542;9.238;2022-08-21T04:50:14;23.20;95.90
25570;DHT22;17955;45.542;9.238;2022-08-21T04:52:54;23.50;96.00
25570;DHT22;17955;45.542;9.238;2022-08-21T04:55:23;23.70;96.30
25570;DHT22;17955;45.542;9.238;2022-08-21T04:57:53;23.50;96.30
25570;DHT22;17955;45.542;9.238;2022-08-21T05:00:22;23.70;96.10
25570;DHT22;17955;45.542;9.238;2022-08-21T05:02:51;24.60;96.30
25570;DHT22;17955;45.542;9.238;2022-08-21T05:05:21;24.40;96.10
25570;DHT22;17955;45.542;9.238;2022-08-21T05:07:49;24.70;95.80
25570;DHT22;17955;45.542;9.238;2022-08-21T05:10:16;24.70;95.50
25570;DHT22;17955;45.542;9.238;2022-08-21T05:12:44;25.00;95.30
25570;DHT22;17955;45.542;9.238;2022-08-21T05:15:12;25.30;95.40
25570;DHT22;17955;45.542;9.238;2022-08-21T05:17:41;25.40;95.30
25570;DHT22;17955;45.542;9.238;2022-08-21T05:20:08;25.50;94.80
25570;DHT22;17955;45.542;9.238;2022-08-21T05:22:36;26.00;94.30
25570;DHT22;17955;45.542;9.238;2022-08-21T05:25:04;25.70;93.90
25570;DHT22;17955;45.542;9.238;2022-08-21T05:27:31;26.00;93.30
25570;DHT22;17955;45.542;9.238;2022-08-21T05:29:58;26.30;93.40
25570;DHT22;17955;45.542;9.238;2022-08-21T05:32:25;26.50;93.00
25570;DHT22;17955;45.542;9.238;2022-08-21T05:34:54;26.90;92.70
25570;DHT22;17955;45.542;9.238;2022-08-21T05:37:21;27.10;92.30
25570;DHT22;17955;45.542;9.238;2022-08-21T05:39:48;27.30;92.00
25570;DHT22;17955;45.542;9.238;2022-08-21T05:42:15;27.40;91.50
25570;DHT22;17955;45.542;9.238;2022-08-21T05:44:42;27.60;91.20
25570;DHT22;17955;45.542;9.238;2022-08-21T05:47:10;27.50;90.80
25570;DHT22;17955;45.542;9.238;2022-08-21T05:49:38;28.00;90.50
25570;DHT22;17955;45.542;9.238;2022-08-21T05:52:07;27.90;90.00
25570;DHT22;17955;45.542;9.238;2022-08-21T05:54:36;28.00;88.90
25570;DHT22;17955;45.542;9.238;2022-08-21T05:57:03;28.20;88.10
25570;DHT22;17955;45.542;9.238;2022-08-21T05:59:30;28.20;87.40
25570;DHT22;17955;45.542;9.238;2022-08-21T06:01:57;28.40;87.20
25570;DHT22;17955;45.542;9.238;2022-08-21T06:04:24;28.60;87.60
25570;DHT22;17955;45.542;9.238;2022-08-21T06:06:51;28.50;87.30
25570;DHT22;17955;45.542;9.238;2022-08-21T06:09:19;28.40;87.90
25570;DHT22;17955;45.542;9.238;2022-08-21T06:11:46;28.90;89.30
25570;DHT22;17955;45.542;9.238;2022-08-21T06:14:14;28.80;89.10
25570;DHT22;17955;45.542;9.238;2022-08-21T06:16:42;28.60;88.20
25570;DHT22;17955;45.542;9.238;2022-08-21T06:19:08;28.90;87.80
25570;DHT22;17955;45.542;9.238;2022-08-21T06:21:35;29.00;87.50
25570;DHT22;17955;45.542;9.238;2022-08-21T06:24:03;29.10;87.50
25570;DHT22;17955;45.542;9.238;2022-08-21T06:26:32;29.30;86.10
25570;DHT22;17955;45.542;9.238;2022-08-21T06:28:59;29.30;83.20
25570;DHT22;17955;45.542;9.238;2022-08-21T06:31:27;29.40;83.70
25570;DHT22;17955;45.542;9.238;2022-08-21T06:33:55;29.80;83.60
25570;DHT22;17955;45.542;9.238;2022-08-21T06:36:22;29.60;82.60
25570;DHT22;17955;45.542;9.238;2022-08-21T06:38:49;30.00;81.20
25570;DHT22;17955;45.542;9.238;2022-08-21T06:41:16;30.10;80.00
25570;DHT22;17955;45.542;9.238;2022-08-21T06:43:44;30.10;79.30
25570;DHT22;17955;45.542;9.238;2022-08-21T06:46:11;30.30;78.60
25570;DHT22;17955;45.542;9.238;2022-08-21T06:48:38;30.50;78.70
25570;DHT22;17955;45.542;9.238;2022-08-21T06:51:05;30.70;78.20
25570;DHT22;17955;45.542;9.238;2022-08-21T06:53:32;30.80;77.60
25570;DHT22;17955;45.542;9.238;2022-08-21T06:55:59;30.90;76.90
25570;DHT22;17955;45.542;9.238;2022-08-21T06:58:26;31.10;77.70
25570;DHT22;17955;45.542;9.238;2022-08-21T07:00:55;30.90;77.80
25570;DHT22;17955;45.542;9.238;2022-08-21T07:03:24;30.80;77.60
25570;DHT22;17955;45.542;9.238;2022-08-21T07:05:53;30.80;77.30
25570;DHT22;17955;45.542;9.238;2022-08-21T07:08:21;30.80;77.40
25570;DHT22;17955;45.542;9.238;2022-08-21T07:10:48;30.80;77.00
25570;DHT22;17955;45.542;9.238;2022-08-21T07:13:16;30.80;76.40
25570;DHT22;17955;45.542;9.238;2022-08-21T07:15:43;31.00;76.40
25570;DHT22;17955;45.542;9.238;2022-08-21T07:18:11;31.00;76.30
25570;DHT22;17955;45.542;9.238;2022-08-21T07:20:39;31.00;75.10
25570;DHT22;17955;45.542;9.238;2022-08-21T07:23:08;31.00;75.30
25570;DHT22;17955;45.542;9.238;2022-08-21T07:25:36;31.10;74.80
25570;DHT22;17955;45.542;9.238;2022-08-21T07:28:03;30.40;74.60
25570;DHT22;17955;45.542;9.238;2022-08-21T07:30:31;30.80;75.90
25570;DHT22;17955;45.542;9.238;2022-08-21T07:32:58;30.70;74.60
25570;DHT22;17955;45.542;9.238;2022-08-21T07:35:26;30.70;75.30
25570;DHT22;17955;45.542;9.238;2022-08-21T07:37:54;30.70;74.80
25570;DHT22;17955;45.542;9.238;2022-08-21T07:40:20;30.80;74.70
25570;DHT22;17955;45.542;9.238;2022-08-21T07:42:49;31.00;74.40
25570;DHT22;17955;45.542;9.238;2022-08-21T07:45:18;30.90;73.20
25570;DHT22;17955;45.542;9.238;2022-08-21T07:47:46;30.90;73.40
25570;DHT22;17955;45.542;9.238;2022-08-21T07:50:14;30.60;73.50
25570;DHT22;17955;45.542;9.238;2022-08-21T07:52:43;30.60;73.80
25570;DHT22;17955;45.542;9.238;2022-08-21T07:55:12;30.50;74.40
25570;DHT22;17955;45.542;9.238;2022-08-21T07:57:40;30.60;74.70
25570;DHT22;17955;45.542;9.238;2022-08-21T08:00:10;30.50;74.50
25570;DHT22;17955;45.542;9.238;2022-08-21T08:02:40;30.40;74.70
25570;DHT22;17955;45.542;9.238;2022-08-21T08:05:11;30.40;75.00
25570;DHT22;17955;45.542;9.238;2022-08-21T08:07:38;30.50;74.70
25570;DHT22;17955;45.542;9.238;2022-08-21T08:10:09;30.50;74.50
25570;DHT22;17955;45.542;9.238;2022-08-21T08:12:37;30.60;74.90
25570;DHT22;17955;45.542;9.238;2022-08-21T08:15:06;30.60;74.70
25570;DHT22;17955;45.542;9.238;2022-08-21T08:17:33;30.50;74.30
25570;DHT22;17955;45.542;9.238;2022-08-21T08:20:01;30.40;74.30
25570;DHT22;17955;45.542;9.238;2022-08-21T08:22:28;30.50;74.00
25570;DHT22;17955;45.542;9.238;2022-08-21T08:24:55;30.40;74.00
25570;DHT22;17955;45.542;9.238;2022-08-21T08:27:23;30.50;74.20
25570;DHT22;17955;45.542;9.238;2022-08-21T08:29:51;30.40;73.80
25570;DHT22;17955;45.542;9.238;2022-08-21T08:32:18;30.40;74.40
25570;DHT22;17955;45.542;9.238;2022-08-21T08:34:45;30.40;74.40
25570;DHT22;17955;45.542;9.238;2022-08-21T08:37:14;30.40;73.70
25570;DHT22;17955;45.542;9.238;2022-08-21T08:39:42;30.20;74.00
25570;DHT22;17955;45.542;9.238;2022-08-21T08:42:11;30.20;74.80
25570;DHT22;17955;45.542;9.238;2022-08-21T08:44:40;30.20;75.10
25570;DHT22;17955;45.542;9.238;2022-08-21T08:47:09;30.20;74.70
25570;DHT22;17955;45.542;9.238;2022-08-21T08:49:41;30.10;75.20
25570;DHT22;17955;45.542;9.238;2022-08-21T08:52:16;30.10;75.30
25570;DHT22;17955;45.542;9.238;2022-08-21T08:54:48;30.00;75.40
25570;DHT22;17955;45.542;9.238;2022-08-21T08:57:18;29.90;75.10
25570;DHT22;17955;45.542;9.238;2022-08-21T08:59:50;30.00;75.40
25570;DHT22;17955;45.542;9.238;2022-08-21T09:02:18;30.10;75.10
25570;DHT22;17955;45.542;9.238;2022-08-21T09:04:48;30.00;75.30
25570;DHT22;17955;45.542;9.238;2022-08-21T09:07:19;30.10;74.80
25570;DHT22;17955;45.542;9.238;2022-08-21T09:10:00;30.10;74.70
25570;DHT22;17955;45.542;9.238;2022-08-21T09:12:35;30.10;75.20
25570;DHT22;17955;45.542;9.238;2022-08-21T09:15:19;30.10;74.00
25570;DHT22;17955;45.542;9.238;2022-08-21T09:18:15;30.00;74.00
25570;DHT22;17955;45.542;9.238;2022-08-21T09:20:52;30.00;75.30
25570;DHT22;17955;45.542;9.238;2022-08-21T09:23:29;30.00;72.90
25570;DHT22;17955;45.542;9.238;2022-08-21T09:26:04;30.00;72.40
25570;DHT22;17955;45.542;9.238;2022-08-21T09:28:33;29.90;72.10
25570;DHT22;17955;45.542;9.238;2022-08-21T09:31:05;29.90;73.60
25570;DHT22;17955;45.542;9.238;2022-08-21T09:33:32;29.90;75.10
25570;DHT22;17955;45.542;9.238;2022-08-21T09:35:59;30.00;73.80
25570;DHT22;17955;45.542;9.238;2022-08-21T09:38:29;30.00;73.80
25570;DHT22;17955;45.542;9.238;2022-08-21T09:41:00;30.60;74.50
25570;DHT22;17955;45.542;9.238;2022-08-21T09:43:29;30.10;74.40
25570;DHT22;17955;45.542;9.238;2022-08-21T09:46:10;30.10;74.10
25570;DHT22;17955;45.542;9.238;2022-08-21T09:48:41;30.00;74.10
25570;DHT22;17955;45.542;9.238;2022-08-21T09:51:11;30.10;73.40
25570;DHT22;17955;45.542;9.238;2022-08-21T09:53:42;30.10;73.10
25570;DHT22;17955;45.542;9.238;2022-08-21T09:56:21;30.10;73.60
25570;DHT22;17955;45.542;9.238;2022-08-21T09:59:18;30.00;74.20
25570;DHT22;17955;45.542;9.238;2022-08-21T10:01:49;30.00;73.90
25570;DHT22;17955;45.542;9.238;2022-08-21T10:04:21;30.00;74.70
25570;DHT22;17955;45.542;9.238;2022-08-21T10:06:49;30.00;74.50
25570;DHT22;17955;45.542;9.238;2022-08-21T10:09:18;30.10;74.00
25570;DHT22;17955;45.542;9.238;2022-08-21T10:11:52;30.10;73.30
25570;DHT22;17955;45.542;9.238;2022-08-21T10:14:34;30.10;74.10
25570;DHT22;17955;45.542;9.238;2022-08-21T10:17:07;30.20;74.50
25570;DHT22;17955;45.542;9.238;2022-08-21T10:19:46;30.10;73.60
25570;DHT22;17955;45.542;9.238;2022-08-21T10:22:31;30.10;74.10
25570;DHT22;17955;45.542;9.238;2022-08-21T10:25:09;30.10;73.20
25570;DHT22;17955;45.542;9.238;2022-08-21T10:27:50;29.90;73.10
25570;DHT22;17955;45.542;9.238;2022-08-21T10:30:24;29.90;73.80
25570;DHT22;17955;45.542;9.238;2022-08-21T10:33:09;29.90;74.00
25570;DHT22;17955;45.542;9.238;2022-08-21T10:35:42;30.00;74.90
25570;DHT22;17955;45.542;9.238;2022-08-21T10:41:27;30.10;72.70
25570;DHT22;17955;45.542;9.238;2022-08-21T10:44:02;29.90;74.00
25570;DHT22;17955;45.542;9.238;2022-08-21T10:46:41;30.10;73.40
25570;DHT22;17955;45.542;9.238;2022-08-21T10:49:17;30.10;73.30
25570;DHT22;17955;45.542;9.238;2022-08-21T10:51:54;29.90;73.20
25570;DHT22;17955;45.542;9.238;2022-08-21T10:54:33;29.90;73.30
25570;DHT22;17955;45.542;9.238;2022-08-21T10:57:06;29.90;73.40
25570;DHT22;17955;45.542;9.238;2022-08-21T10:59:40;29.90;73.20
25570;DHT22;17955;45.542;9.238;2022-08-21T11:02:15;29.80;73.50
25570;DHT22;17955;45.542;9.238;2022-08-21T11:04:50;29.90;72.50
25570;DHT22;17955;45.542;9.238;2022-08-21T11:07:22;29.90;72.40
25570;DHT22;17955;45.542;9.238;2022-08-21T11:09:58;29.90;72.60
25570;DHT22;17955;45.542;9.238;2022-08-21T11:12:33;29.90;72.00
25570;DHT22;17955;45.542;9.238;2022-08-21T11:15:04;29.90;73.60
25570;DHT22;17955;45.542;9.238;2022-08-21T11:17:38;29.90;73.80
25570;DHT22;17955;45.542;9.238;2022-08-21T11:20:13;30.00;74.30
25570;DHT22;17955;45.542;9.238;2022-08-21T11:22:47;30.00;74.20
25570;DHT22;17955;45.542;9.238;2022-08-21T11:25:21;28.40;72.40
25570;DHT22;17955;45.542;9.238;2022-08-21T11:27:52;29.10;72.80
25570;DHT22;17955;45.542;9.238;2022-08-21T11:30:21;30.10;73.70
25570;DHT22;17955;45.542;9.238;2022-08-21T11:33:11;30.10;73.40
25570;DHT22;17955;45.542;9.238;2022-08-21T11:35:46;30.20;73.40
25570;DHT22;17955;45.542;9.238;2022-08-21T11:38:28;30.10;73.60
25570;DHT22;17955;45.542;9.238;2022-08-21T11:41:16;30.10;73.70
25570;DHT22;17955;45.542;9.238;2022-08-21T11:43:48;30.10;74.70
25570;DHT22;17955;45.542;9.238;2022-08-21T11:46:26;30.00;74.10
25570;DHT22;17955;45.542;9.238;2022-08-21T11:49:06;30.00;74.00
25570;DHT22;17955;45.542;9.238;2022-08-21T11:51:41;29.90;73.40
25570;DHT22;17955;45.542;9.238;2022-08-21T11:54:13;29.90;73.80
25570;DHT22;17955;45.542;9.238;2022-08-21T11:56:45;30.00;73.30
25570;DHT22;17955;45.542;9.238;2022-08-21T11:59:19;30.20;73.20
25570;DHT22;17955;45.542;9.238;2022-08-21T12:01:48;30.30;71.80
25570;DHT22;17955;45.542;9.238;2022-08-21T12:04:21;30.40;70.60
25570;DHT22;17955;45.542;9.238;2022-08-21T12:06:50;30.40;69.70
25570;DHT22;17955;45.542;9.238;2022-08-21T12:09:31;30.40;70.30
25570;DHT22;17955;45.542;9.238;2022-08-21T12:12:03;30.30;72.00
25570;DHT22;17955;45.542;9.238;2022-08-21T12:14:40;30.30;71.80
25570;DHT22;17955;45.542;9.238;2022-08-21T12:17:15;30.30;71.10
25570;DHT22;17955;45.542;9.238;2022-08-21T12:19:44;30.40;71.90
25570;DHT22;17955;45.542;9.238;2022-08-21T12:22:13;30.30;71.30
25570;DHT22;17955;45.542;9.238;2022-08-21T12:24:44;30.30;70.20
25570;DHT22;17955;45.542;9.238;2022-08-21T12:27:27;30.30;71.20
25570;DHT22;17955;45.542;9.238;2022-08-21T12:29:58;30.40;69.50
25570;DHT22;17955;45.542;9.238;2022-08-21T12:32:29;30.50;70.30
25570;DHT22;17955;45.542;9.238;2022-08-21T12:35:02;30.40;69.30
25570;DHT22;17955;45.542;9.238;2022-08-21T12:37:39;30.30;69.90
25570;DHT22;17955;45.542;9.238;2022-08-21T12:40:13;30.50;69.40
25570;DHT22;17955;45.542;9.238;2022-08-21T12:42:46;30.50;68.90
25570;DHT22;17955;45.542;9.238;2022-08-21T12:45:19;30.70;68.50
25570;DHT22;17955;45.542;9.238;2022-08-21T12:47:51;30.70;67.10
25570;DHT22;17955;45.542;9.238;2022-08-21T12:50:31;30.80;66.30
25570;DHT22;17955;45.542;9.238;2022-08-21T12:53:07;30.80;67.10
25570;DHT22;17955;45.542;9.238;2022-08-21T12:55:41;30.80;66.30
25570;DHT22;17955;45.542;9.238;2022-08-21T12:58:17;30.90;66.40
25570;DHT22;17955;45.542;9.238;2022-08-21T13:00:49;30.80;66.70
25570;DHT22;17955;45.542;9.238;2022-08-21T13:03:17;30.70;67.60
25570;DHT22;17955;45.542;9.238;2022-08-21T13:05:44;30.70;68.10
25570;DHT22;17955;45.542;9.238;2022-08-21T13:08:13;30.70;68.50
25570;DHT22;17955;45.542;9.238;2022-08-21T13:10:41;30.70;67.20
25570;DHT22;17955;45.542;9.238;2022-08-21T13:13:12;30.60;66.90
25570;DHT22;17955;45.542;9.238;2022-08-21T13:15:43;30.70;67.60
25570;DHT22;17955;45.542;9.238;2022-08-21T13:18:20;30.60;68.40
25570;DHT22;17955;45.542;9.238;2022-08-21T13:20:48;30.40;69.10
25570;DHT22;17955;45.542;9.238;2022-08-21T13:23:24;30.30;68.80
25570;DHT22;17955;45.542;9.238;2022-08-21T13:25:51;30.30;69.40
25570;DHT22;17955;45.542;9.238;2022-08-21T13:28:18;30.20;68.00
25570;DHT22;17955;45.542;9.238;2022-08-21T13:30:48;30.20;69.60
25570;DHT22;17955;45.542;9.238;2022-08-21T13:33:18;30.30;69.00
25570;DHT22;17955;45.542;9.238;2022-08-21T13:35:48;30.20;69.40
25570;DHT22;17955;45.542;9.238;2022-08-21T13:38:17;30.30;69.50
25570;DHT22;17955;45.542;9.238;2022-08-21T13:40:49;30.20;68.90
25570;DHT22;17955;45.542;9.238;2022-08-21T13:43:20;30.20;69.80
25570;DHT22;17955;45.542;9.238;2022-08-21T13:45:51;30.30;67.20
25570;DHT22;17955;45.542;9.238;2022-08-21T13:48:24;30.40;68.60
25570;DHT22;17955;45.542;9.238;2022-08-21T13:50:52;30.30;69.00
25570;DHT22;17955;45.542;9.238;2022-08-21T13:53:22;30.20;68.30
25570;DHT22;17955;45.542;9.238;2022-08-21T13:55:51;30.30;68.70
25570;DHT22;17955;45.542;9.238;2022-08-21T13:58:28;30.40;66.80
25570;DHT22;17955;45.542;9.238;2022-08-21T14:00:57;30.50;65.80
25570;DHT22;17955;45.542;9.238;2022-08-21T14:03:32;30.60;65.80
25570;DHT22;17955;45.542;9.238;2022-08-21T14:06:00;30.70;66.10
25570;DHT22;17955;45.542;9.238;2022-08-21T14:08:32;30.50;67.90
25570;DHT22;17955;45.542;9.238;2022-08-21T14:11:03;30.40;68.20
25570;DHT22;17955;45.542;9.238;2022-08-21T14:13:36;30.40;68.30
25570;DHT22;17955;45.542;9.238;2022-08-21T14:16:15;30.30;66.90
25570;DHT22;17955;45.542;9.238;2022-08-21T14:18:48;30.40;68.30
25570;DHT22;17955;45.542;9.238;2022-08-21T14:21:28;30.70;65.70
25570;DHT22;17955;45.542;9.238;2022-08-21T14:24:03;30.70;65.50
25570;DHT22;17955;45.542;9.238;2022-08-21T14:26:34;30.60;67.30
25570;DHT22;17955;45.542;9.238;2022-08-21T14:29:02;30.70;65.50
25570;DHT22;17955;45.542;9.238;2022-08-21T14:31:34;30.70;66.80
25570;DHT22;17955;45.542;9.238;2022-08-21T14:34:01;31.10;67.10
25570;DHT22;17955;45.542;9.238;2022-08-21T14:36:28;30.40;67.10
25570;DHT22;17955;45.542;9.238;2022-08-21T14:38:55;30.40;66.90
25570;DHT22;17955;45.542;9.238;2022-08-21T14:41:24;30.40;66.50
25570;DHT22;17955;45.542;9.238;2022-08-21T14:43:53;30.50;67.40
25570;DHT22;17955;45.542;9.238;2022-08-21T14:46:22;30.30;67.90
25570;DHT22;17955;45.542;9.238;2022-08-21T14:48:49;30.30;68.00
25570;DHT22;17955;45.542;9.238;2022-08-21T14:51:16;30.20;67.50
25570;DHT22;17955;45.542;9.238;2022-08-21T14:53:44;30.20;67.80
25570;DHT22;17955;45.542;9.238;2022-08-21T14:56:12;30.20;67.10
25570;DHT22;17955;45.542;9.238;2022-08-21T14:58:41;30.20;68.00
25570;DHT22;17955;45.542;9.238;2022-08-21T15:01:12;30.20;68.00
25570;DHT22;17955;45.542;9.238;2022-08-21T15:03:40;30.20;68.30
25570;DHT22;17955;45.542;9.238;2022-08-21T15:06:08;30.10;67.90
25570;DHT22;17955;45.542;9.238;2022-08-21T15:08:36;30.10;68.30
25570;DHT22;17955;45.542;9.238;2022-08-21T15:11:04;30.10;68.20
25570;DHT22;17955;45.542;9.238;2022-08-21T15:13:32;30.10;68.70
25570;DHT22;17955;45.542;9.238;2022-08-21T15:16:00;30.10;68.20
25570;DHT22;17955;45.542;9.238;2022-08-21T15:18:29;30.10;68.30
25570;DHT22;17955;45.542;9.238;2022-08-21T15:20:56;30.00;68.70
25570;DHT22;17955;45.542;9.238;2022-08-21T15:23:23;30.10;68.90
25570;DHT22;17955;45.542;9.238;2022-08-21T15:25:52;30.10;68.30
25570;DHT22;17955;45.542;9.238;2022-08-21T15:28:19;30.10;68.90
25570;DHT22;17955;45.542;9.238;2022-08-21T15:30:50;30.00;68.70
25570;DHT22;17955;45.542;9.238;2022-08-21T15:33:17;30.00;68.50
25570;DHT22;17955;45.542;9.238;2022-08-21T15:35:45;30.10;67.90
25570;DHT22;17955;45.542;9.238;2022-08-21T15:38:13;30.30;66.60
25570;DHT22;17955;45.542;9.238;2022-08-21T15:40:41;30.30;67.60
25570;DHT22;17955;45.542;9.238;2022-08-21T15:43:18;30.30;65.50
25570;DHT22;17955;45.542;9.238;2022-08-21T15:45:47;30.30;64.70
25570;DHT22;17955;45.542;9.238;2022-08-21T15:48:14;30.50;65.60
25570;DHT22;17955;45.542;9.238;2022-08-21T15:50:41;30.50;66.40